sensor_id;sensor_type;location;lat;lon;timestamp;temperature;humidity
4187;DHT22;2107;52.306;10.484;2024-02-14T00:02:23;6.20;99.90
4187;DHT22;2107;52.306;10.484;2024-02-14T00:04:51;6.20;99.90
4187;DHT22;2107;52.306;10.484;2024-02-14T00:07:18;6.20;99.90
4187;DHT22;2107;52.306;10.484;2024-02-14T00:09:45;6.30;99.90
4187;DHT22;2107;52.306;10.484;2024-02-14T00:12:12;6.30;99.90
4187;DHT22;2107;52.306;10.484;2024-02-14T00:14:40;6.40;99.90
4187;DHT22;2107;52.306;10.484;2024-02-14T00:17:08;6.30;99.90
4187;DHT22;2107;52.306;10.484;2024-02-14T00:19:36;6.30;99.90
4187;DHT22;2107;52.306;10.484;2024-02-14T00:22:03;6.30;99.90
4187;DHT22;2107;52.306;10.484;2024-02-14T00:24:30;6.30;99.90
4187;DHT22;2107;52.306;10.484;2024-02-14T00:26:57;6.30;99.90
4187;DHT22;2107;52.306;10.484;2024-02-14T00:29:26;6.30;99.90
4187;DHT22;2107;52.306;10.484;2024-02-14T00:31:54;6.30;99.90
4187;DHT22;2107;52.306;10.484;2024-02-14T00:34:21;6.30;99.90
4187;DHT22;2107;52.306;10.484;2024-02-14T00:36:47;6.30;99.90
4187;DHT22;2107;52.306;10.484;2024-02-14T00:39:14;6.30;99.90
4187;DHT22;2107;52.306;10.484;2024-02-14T00:41:41;6.20;99.90
4187;DHT22;2107;52.306;10.484;2024-02-14T00:44:08;6.20;99.90
4187;DHT22;2107;52.306;10.484;2024-02-14T00:46:35;6.20;99.90
4187;DHT22;2107;52.306;10.484;2024-02-14T00:49:03;6.20;99.90
4187;DHT22;2107;52.306;10.484;2024-02-14T00:51:30;6.20;99.90
4187;DHT22;2107;52.306;10.484;2024-02-14T00:53:57;6.10;99.90
4187;DHT22;2107;52.306;10.484;2024-02-14T00:56:23;6.10;99.90
4187;DHT22;2107;52.306;10.484;2024-02-14T00:58:50;6.00;99.90
4187;DHT22;2107;52.306;10.484;2024-02-14T01:01:17;6.00;99.90
4187;DHT22;2107;52.306;10.484;2024-02-14T01:03:44;5.90;99.90
4187;DHT22;2107;52.306;10.484;2024-02-14T01:06:12;5.90;99.90
4187;DHT22;2107;52.306;10.484;2024-02-14T01:08:40;5.90;99.90
4187;DHT22;2107;52.306;10.484;2024-02-14T01:11:08;6.20;99.90
4187;DHT22;2107;52.306;10.484;2024-02-14T01:13:34;6.00;99.90
4187;DHT22;2107;52.306;10.484;2024-02-14T01:16:03;6.00;99.90
4187;DHT22;2107;52.306;10.484;2024-02-14T01:18:30;6.00;99.90
4187;DHT22;2107;52.306;10.484;2024-02-14T01:20:57;6.10;99.90
4187;DHT22;2107;52.306;10.484;2024-02-14T01:23:27;6.10;99.90
4187;DHT22;2107;52.306;10.484;2024-02-14T01:25:54;6.20;99.90
4187;DHT22;2107;52.306;10.484;2024-02-14T01:28:21;6.20;99.90
4187;DHT22;2107;52.306;10.484;2024-02-14T01:30:48;6.20;99.90
4187;DHT22;2107;52.306;10.484;2024-02-14T01:33:15;6.20;99.90
4187;DHT22;2107;52.306;10.484;2024-02-14T01:35:42;6.20;99.90
4187;DHT22;2107;52.306;10.484;2024-02-14T01:38:09;6.20;99.90
4187;DHT22;2107;52.306;10.484;2024-02-14T01:40:42;6.20;99.90
4187;DHT22;2107;52.306;10.484;2024-02-14T01:43:09;6.10;99.90
4187;DHT22;2107;52.306;10.484;2024-02-14T01:45:37;6.10;99.90
4187;DHT22;2107;52.306;10.484;2024-02-14T01:48:05;6.10;99.90
4187;DHT22;2107;52.306;10.484;2024-02-14T01:50:33;6.20;99.90
4187;DHT22;2107;52.306;10.484;2024-02-14T01:53:01;6.20;99.90
4187;DHT22;2107;52.306;10.484;2024-02-14T01:55:29;6.20;99.90
4187;DHT22;2107;52.306;10.484;2024-02-14T01:57:57;6.20;99.90
4187;DHT22;2107;52.306;10.484;2024-02-14T02:00:25;6.20;99.90
4187;DHT22;2107;52.306;10.484;2024-02-14T02:02:53;6.30;99.90
4187;DHT22;2107;52.306;10.484;2024-02-14T02:05:21;6.40;99.90
4187;DHT22;2107;52.306;10.484;2024-02-14T02:07:48;6.40;99.90
4187;DHT22;2107;52.306;10.484;2024-02-14T02:10:15;6.50;99.90
4187;DHT22;2107;52.306;10.484;2024-02-14T02:12:42;6.40;99.90
4187;DHT22;2107;52.306;10.484;2024-02-14T02:15:10;6.40;99.90
4187;DHT22;2107;52.306;10.484;2024-02-14T02:17:38;6.40;99.90
4187;DHT22;2107;52.306;10.484;2024-02-14T02:20:06;6.40;99.90
4187;DHT22;2107;52.306;10.484;2024-02-14T02:22:34;6.40;99.90
4187;DHT22;2107;52.306;10.484;2024-02-14T02:25:03;6.50;99.90
4187;DHT22;2107;52.306;10.484;2024-02-14T02:27:32;6.50;99.90
4187;DHT22;2107;52.306;10.484;2024-02-14T02:30:00;6.50;99.90
4187;DHT22;2107;52.306;10.484;2024-02-14T02:32:27;6.50;99.90
4187;DHT22;2107;52.306;10.484;2024-02-14T02:34:54;6.50;99.90
4187;DHT22;2107;52.306;10.484;2024-02-14T02:37:22;6.50;99.90
4187;DHT22;2107;52.306;10.484;2024-02-14T02:39:48;6.60;99.90
4187;DHT22;2107;52.306;10.484;2024-02-14T02:42:18;6.60;99.90
4187;DHT22;2107;52.306;10.484;2024-02-14T02:44:46;6.70;99.90
4187;DHT22;2107;52.306;10.484;2024-02-14T02:47:14;6.80;99.90
4187;DHT22;2107;52.306;10.484;2024-02-14T02:49:42;7.00;99.90
4187;DHT22;2107;52.306;10.484;2024-02-14T02:52:09;6.90;99.90
4187;DHT22;2107;52.306;10.484;2024-02-14T02:54:36;7.00;99.90
4187;DHT22;2107;52.306;10.484;2024-02-14T02:57:06;7.10;99.90
4187;DHT22;2107;52.306;10.484;2024-02-14T02:59:34;7.00;99.90
4187;DHT22;2107;52.306;10.484;2024-02-14T03:02:02;6.90;99.90
4187;DHT22;2107;52.306;10.484;2024-02-14T03:04:29;6.90;99.90
4187;DHT22;2107;52.306;10.484;2024-02-14T03:06:57;6.80;99.90
4187;DHT22;2107;52.306;10.484;2024-02-14T03:09:24;6.80;99.90
4187;DHT22;2107;52.306;10.484;2024-02-14T03:11:53;6.70;99.90
4187;DHT22;2107;52.306;10.484;2024-02-14T03:14:22;6.70;99.90
4187;DHT22;2107;52.306;10.484;2024-02-14T03:16:50;6.50;99.90
4187;DHT22;2107;52.306;10.484;2024-02-14T03:19:17;6.50;99.90
4187;DHT22;2107;52.306;10.484;2024-02-14T03:21:44;6.40;99.90
4187;DHT22;2107;52.306;10.484;2024-02-14T03:24:12;6.40;99.90
4187;DHT22;2107;52.306;10.484;2024-02-14T03:26:40;6.40;99.90
4187;DHT22;2107;52.306;10.484;2024-02-14T03:29:07;6.30;99.90
4187;DHT22;2107;52.306;10.484;2024-02-14T03:31:34;6.30;99.90
4187;DHT22;2107;52.306;10.484;2024-02-14T03:34:02;6.20;99.90
4187;DHT22;2107;52.306;10.484;2024-02-14T03:36:29;6.20;99.90
4187;DHT22;2107;52.306;10.484;2024-02-14T03:38:57;6.10;99.90
4187;DHT22;2107;52.306;10.484;2024-02-14T03:41:24;6.10;99.90
4187;DHT22;2107;52.306;10.484;2024-02-14T03:43:50;6.10;99.90
4187;DHT22;2107;52.306;10.484;2024-02-14T03:46:18;6.10;99.90
4187;DHT22;2107;52.306;10.484;2024-02-14T03:48:47;6.00;99.90
4187;DHT22;2107;52.306;10.484;2024-02-14T03:51:15;6.00;99.90
4187;DHT22;2107;52.306;10.484;2024-02-14T03:53:43;6.00;99.90
4187;DHT22;2107;52.306;10.484;2024-02-14T03:56:09;6.00;99.90
4187;DHT22;2107;52.306;10.484;2024-02-14T03:58:38;6.00;99.90
4187;DHT22;2107;52.306;10.484;2024-02-14T04:01:05;6.00;99.90
4187;DHT22;2107;52.306;10.484;2024-02-14T04:03:33;6.10;99.90
4187;DHT22;2107;52.306;10.484;2024-02-14T04:06:00;6.00;99.90
4187;DHT22;2107;52.306;10.484;2024-02-14T04:08:28;6.00;99.90
4187;DHT22;2107;52.306;10.484;2024-02-14T04:10:55;6.00;99.90
4187;DHT22;2107;52.306;10.484;2024-02-14T04:13:22;6.00;99.90
4187;DHT22;2107;52.306;10.484;2024-02-14T04:15:49;6.00;99.90
4187;DHT22;2107;52.306;10.484;2024-02-14T04:18:16;6.00;99.90
4187;DHT22;2107;52.306;10.484;2024-02-14T04:20:43;6.00;99.90
4187;DHT22;2107;52.306;10.484;2024-02-14T04:23:10;6.10;99.90
4187;DHT22;2107;52.306;10.484;2024-02-14T04:25:39;6.10;99.90
4187;DHT22;2107;52.306;10.484;2024-02-14T04:28:06;6.10;99.90
4187;DHT22;2107;52.306;10.484;2024-02-14T04:30:33;6.10;99.90
4187;DHT22;2107;52.306;10.484;2024-02-14T04:33:01;6.20;99.90
4187;DHT22;2107;52.306;10.484;2024-02-14T04:35:30;6.20;99.90
4187;DHT22;2107;52.306;10.484;2024-02-14T04:37:57;6.30;99.90
4187;DHT22;2107;52.306;10.484;2024-02-14T04:40:23;6.30;99.90
4187;DHT22;2107;52.306;10.484;2024-02-14T04:42:52;6.30;99.90
4187;DHT22;2107;52.306;10.484;2024-02-14T04:45:18;6.30;99.90
4187;DHT22;2107;52.306;10.484;2024-02-14T04:47:45;6.30;99.90
4187;DHT22;2107;52.306;10.484;2024-02-14T04:50:12;6.40;99.90
4187;DHT22;2107;52.306;10.484;2024-02-14T04:52:39;6.40;99.90
4187;DHT22;2107;52.306;10.484;2024-02-14T04:55:07;6.40;99.90
4187;DHT22;2107;52.306;10.484;2024-02-14T04:57:34;6.50;99.90
4187;DHT22;2107;52.306;10.484;2024-02-14T05:00:05;6.50;99.90
4187;DHT22;2107;52.306;10.484;2024-02-14T05:02:33;6.50;99.90
4187;DHT22;2107;52.306;10.484;2024-02-14T05:05:00;6.60;99.90
4187;DHT22;2107;52.306;10.484;2024-02-14T05:07:27;6.60;99.90
4187;DHT22;2107;52.306;10.484;2024-02-14T05:09:54;6.80;99.90
4187;DHT22;2107;52.306;10.484;2024-02-14T05:12:22;6.70;99.90
4187;DHT22;2107;52.306;10.484;2024-02-14T05:14:49;6.60;99.90
4187;DHT22;2107;52.306;10.484;2024-02-14T05:17:17;6.60;99.90
4187;DHT22;2107;52.306;10.484;2024-02-14T05:19:44;6.50;99.90
4187;DHT22;2107;52.306;10.484;2024-02-14T05:22:11;6.40;99.90
4187;DHT22;2107;52.306;10.484;2024-02-14T05:24:38;6.50;99.90
4187;DHT22;2107;52.306;10.484;2024-02-14T05:27:05;6.50;99.90
4187;DHT22;2107;52.306;10.484;2024-02-14T05:29:32;6.40;99.90
4187;DHT22;2107;52.306;10.484;2024-02-14T05:31:59;6.40;99.90
4187;DHT22;2107;52.306;10.484;2024-02-14T05:34:27;6.30;99.90
4187;DHT22;2107;52.306;10.484;2024-02-14T05:36:54;6.30;99.90
4187;DHT22;2107;52.306;10.484;2024-02-14T05:39:21;6.30;99.90
4187;DHT22;2107;52.306;10.484;2024-02-14T05:41:48;6.30;99.90
4187;DHT22;2107;52.306;10.484;2024-02-14T05:44:15;6.30;99.90
4187;DHT22;2107;52.306;10.484;2024-02-14T05:46:42;6.30;99.90
4187;DHT22;2107;52.306;10.484;2024-02-14T05:49:09;6.30;99.90
4187;DHT22;2107;52.306;10.484;2024-02-14T05:51:37;6.20;99.90
4187;DHT22;2107;52.306;10.484;2024-02-14T05:54:04;6.20;99.90
4187;DHT22;2107;52.306;10.484;2024-02-14T05:56:31;6.30;99.90
4187;DHT22;2107;52.306;10.484;2024-02-14T05:58:58;6.20;99.90
4187;DHT22;2107;52.306;10.484;2024-02-14T06:01:25;6.20;99.90
4187;DHT22;2107;52.306;10.484;2024-02-14T06:03:51;6.20;99.90
4187;DHT22;2107;52.306;10.484;2024-02-14T06:06:18;6.30;99.90
4187;DHT22;2107;52.306;10.484;2024-02-14T06:08:46;6.30;99.90
4187;DHT22;2107;52.306;10.484;2024-02-14T06:11:13;6.30;99.90
4187;DHT22;2107;52.306;10.484;2024-02-14T06:13:41;6.30;99.90
4187;DHT22;2107;52.306;10.484;2024-02-14T06:16:08;6.30;99.90
4187;DHT22;2107;52.306;10.484;2024-02-14T06:18:37;6.30;99.90
4187;DHT22;2107;52.306;10.484;2024-02-14T06:21:05;6.30;99.90
4187;DHT22;2107;52.306;10.484;2024-02-14T06:23:32;6.30;99.90
4187;DHT22;2107;52.306;10.484;2024-02-14T06:26:00;6.40;99.90
4187;DHT22;2107;52.306;10.484;2024-02-14T06:28:27;6.40;99.90
4187;DHT22;2107;52.306;10.484;2024-02-14T06:30:54;6.40;99.90
4187;DHT22;2107;52.306;10.484;2024-02-14T06:33:21;6.40;99.90
4187;DHT22;2107;52.306;10.484;2024-02-14T06:35:48;6.40;99.90
4187;DHT22;2107;52.306;10.484;2024-02-14T06:38:15;6.40;99.90
4187;DHT22;2107;52.306;10.484;2024-02-14T06:40:42;6.50;99.90
4187;DHT22;2107;52.306;10.484;2024-02-14T06:43:10;6.50;99.90
4187;DHT22;2107;52.306;10.484;2024-02-14T06:45:38;6.60;99.90
4187;DHT22;2107;52.306;10.484;2024-02-14T06:48:05;6.60;99.90
4187;DHT22;2107;52.306;10.484;2024-02-14T06:50:33;6.60;99.90
4187;DHT22;2107;52.306;10.484;2024-02-14T06:53:00;6.60;99.90
4187;DHT22;2107;52.306;10.484;2024-02-14T06:55:27;6.60;99.90
4187;DHT22;2107;52.306;10.484;2024-02-14T06:57:54;6.60;99.90
4187;DHT22;2107;52.306;10.484;2024-02-14T07:00:23;6.70;99.90
4187;DHT22;2107;52.306;10.484;2024-02-14T07:02:50;6.70;99.90
4187;DHT22;2107;52.306;10.484;2024-02-14T07:05:17;6.70;99.90
4187;DHT22;2107;52.306;10.484;2024-02-14T07:07:44;6.70;99.90
4187;DHT22;2107;52.306;10.484;2024-02-14T07:10:11;6.70;99.90
4187;DHT22;2107;52.306;10.484;2024-02-14T07:12:38;6.70;99.90
4187;DHT22;2107;52.306;10.484;2024-02-14T07:15:06;6.70;99.90
4187;DHT22;2107;52.306;10.484;2024-02-14T07:17:35;6.70;99.90
4187;DHT22;2107;52.306;10.484;2024-02-14T07:20:02;6.70;99.90
4187;DHT22;2107;52.306;10.484;2024-02-14T07:22:29;6.70;99.90
4187;DHT22;2107;52.306;10.484;2024-02-14T07:24:56;6.70;99.90
4187;DHT22;2107;52.306;10.484;2024-02-14T07:27:23;6.70;99.90
4187;DHT22;2107;52.306;10.484;2024-02-14T07:29:50;6.60;99.90
4187;DHT22;2107;52.306;10.484;2024-02-14T07:32:17;6.60;99.90
4187;DHT22;2107;52.306;10.484;2024-02-14T07:34:45;6.60;99.90
4187;DHT22;2107;52.306;10.484;2024-02-14T07:37:12;6.60;99.90
4187;DHT22;2107;52.306;10.484;2024-02-14T07:39:40;6.60;99.90
4187;DHT22;2107;52.306;10.484;2024-02-14T07:42:07;6.60;99.90
4187;DHT22;2107;52.306;10.484;2024-02-14T07:44:34;6.70;99.90
4187;DHT22;2107;52.306;10.484;2024-02-14T07:47:01;6.60;99.90
4187;DHT22;2107;52.306;10.484;2024-02-14T07:49:29;6.70;99.90
4187;DHT22;2107;52.306;10.484;2024-02-14T07:51:57;6.70;99.90
4187;DHT22;2107;52.306;10.484;2024-02-14T07:54:24;6.70;99.90
4187;DHT22;2107;52.306;10.484;2024-02-14T07:56:51;6.70;99.90
4187;DHT22;2107;52.306;10.484;2024-02-14T07:59:18;6.70;99.90
4187;DHT22;2107;52.306;10.484;2024-02-14T08:01:45;6.70;99.90
4187;DHT22;2107;52.306;10.484;2024-02-14T08:04:12;6.70;99.90
4187;DHT22;2107;52.306;10.484;2024-02-14T08:06:39;6.70;99.90
4187;DHT22;2107;52.306;10.484;2024-02-14T08:09:07;6.80;99.90
4187;DHT22;2107;52.306;10.484;2024-02-14T08:11:35;6.80;99.90
4187;DHT22;2107;52.306;10.484;2024-02-14T08:14:02;6.80;99.90
4187;DHT22;2107;52.306;10.484;2024-02-14T08:16:29;6.80;99.90
4187;DHT22;2107;52.306;10.484;2024-02-14T08:18:56;6.90;99.90
4187;DHT22;2107;52.306;10.484;2024-02-14T08:21:24;6.90;99.90
4187;DHT22;2107;52.306;10.484;2024-02-14T08:23:52;6.90;99.90
4187;DHT22;2107;52.306;10.484;2024-02-14T08:26:20;6.90;99.90
4187;DHT22;2107;52.306;10.484;2024-02-14T08:28:48;6.90;99.90
4187;DHT22;2107;52.306;10.484;2024-02-14T08:31:15;6.90;99.90
4187;DHT22;2107;52.306;10.484;2024-02-14T08:33:42;6.90;99.90
4187;DHT22;2107;52.306;10.484;2024-02-14T08:36:09;6.90;99.90
4187;DHT22;2107;52.306;10.484;2024-02-14T08:38:36;7.00;99.90
4187;DHT22;2107;52.306;10.484;2024-02-14T08:41:03;7.00;99.90
4187;DHT22;2107;52.306;10.484;2024-02-14T08:43:31;7.00;99.90
4187;DHT22;2107;52.306;10.484;2024-02-14T08:45:59;7.10;99.90
4187;DHT22;2107;52.306;10.484;2024-02-14T08:48:26;7.10;99.90
4187;DHT22;2107;52.306;10.484;2024-02-14T08:50:54;7.10;99.90
4187;DHT22;2107;52.306;10.484;2024-02-14T08:53:21;7.20;99.90
4187;DHT22;2107;52.306;10.484;2024-02-14T08:55:48;7.20;99.90
4187;DHT22;2107;52.306;10.484;2024-02-14T08:58:15;7.20;99.90
4187;DHT22;2107;52.306;10.484;2024-02-14T09:00:43;7.20;99.90
4187;DHT22;2107;52.306;10.484;2024-02-14T09:03:10;7.20;99.90
4187;DHT22;2107;52.306;10.484;2024-02-14T09:05:37;7.20;99.90
4187;DHT22;2107;52.306;10.484;2024-02-14T09:08:06;7.20;99.90
4187;DHT22;2107;52.306;10.484;2024-02-14T09:10:33;7.30;99.90
4187;DHT22;2107;52.306;10.484;2024-02-14T09:13:00;7.20;99.90
4187;DHT22;2107;52.306;10.484;2024-02-14T09:15:28;7.30;99.90
4187;DHT22;2107;52.306;10.484;2024-02-14T09:17:57;7.30;99.90
4187;DHT22;2107;52.306;10.484;2024-02-14T09:20:25;7.30;99.90
4187;DHT22;2107;52.306;10.484;2024-02-14T09:22:52;7.30;99.90
4187;DHT22;2107;52.306;10.484;2024-02-14T09:25:20;7.30;99.90
4187;DHT22;2107;52.306;10.484;2024-02-14T09:27:48;7.50;99.90
4187;DHT22;2107;52.306;10.484;2024-02-14T09:30:15;7.40;99.90
4187;DHT22;2107;52.306;10.484;2024-02-14T09:32:43;7.30;99.90
4187;DHT22;2107;52.306;10.484;2024-02-14T09:35:11;7.40;99.90
4187;DHT22;2107;52.306;10.484;2024-02-14T09:37:38;7.40;99.90
4187;DHT22;2107;52.306;10.484;2024-02-14T09:40:05;7.40;99.90
4187;DHT22;2107;52.306;10.484;2024-02-14T09:42:38;7.40;99.90
4187;DHT22;2107;52.306;10.484;2024-02-14T09:45:07;7.40;99.90
4187;DHT22;2107;52.306;10.484;2024-02-14T09:47:34;7.50;99.90
4187;DHT22;2107;52.306;10.484;2024-02-14T09:50:02;7.50;99.90
4187;DHT22;2107;52.306;10.484;2024-02-14T09:52:33;7.70;99.90
4187;DHT22;2107;52.306;10.484;2024-02-14T09:55:01;7.80;99.90
4187;DHT22;2107;52.306;10.484;2024-02-14T09:57:30;7.90;99.90
4187;DHT22;2107;52.306;10.484;2024-02-14T09:59:59;7.80;99.90
4187;DHT22;2107;52.306;10.484;2024-02-14T10:02:26;8.00;99.90
4187;DHT22;2107;52.306;10.484;2024-02-14T10:04:54;7.90;99.90
4187;DHT22;2107;52.306;10.484;2024-02-14T10:07:21;7.90;99.90
4187;DHT22;2107;52.306;10.484;2024-02-14T10:09:49;7.90;99.90
4187;DHT22;2107;52.306;10.484;2024-02-14T10:12:16;7.90;99.90
4187;DHT22;2107;52.306;10.484;2024-02-14T10:14:43;7.90;99.90
4187;DHT22;2107;52.306;10.484;2024-02-14T10:17:17;7.90;99.90
4187;DHT22;2107;52.306;10.484;2024-02-14T10:19:55;7.90;99.90
4187;DHT22;2107;52.306;10.484;2024-02-14T10:22:22;8.00;99.90
4187;DHT22;2107;52.306;10.484;2024-02-14T10:24:50;8.00;99.90
4187;DHT22;2107;52.306;10.484;2024-02-14T10:27:17;8.10;99.90
4187;DHT22;2107;52.306;10.484;2024-02-14T10:29:44;8.20;99.90
4187;DHT22;2107;52.306;10.484;2024-02-14T10:32:14;8.20;99.90
4187;DHT22;2107;52.306;10.484;2024-02-14T10:34:43;8.30;99.90
4187;DHT22;2107;52.306;10.484;2024-02-14T10:37:14;8.30;99.90
4187;DHT22;2107;52.306;10.484;2024-02-14T10:39:42;8.30;99.90
4187;DHT22;2107;52.306;10.484;2024-02-14T10:42:12;8.40;99.90
4187;DHT22;2107;52.306;10.484;2024-02-14T10:44:39;8.50;99.90
4187;DHT22;2107;52.306;10.484;2024-02-14T10:47:08;8.60;99.90
4187;DHT22;2107;52.306;10.484;2024-02-14T10:49:38;8.80;99.90
4187;DHT22;2107;52.306;10.484;2024-02-14T10:52:08;9.10;99.90
4187;DHT22;2107;52.306;10.484;2024-02-14T10:54:36;9.40;99.90
4187;DHT22;2107;52.306;10.484;2024-02-14T10:57:05;9.70;99.90
4187;DHT22;2107;52.306;10.484;2024-02-14T10:59:41;9.70;99.90
4187;DHT22;2107;52.306;10.484;2024-02-14T11:02:10;10.00;99.90
4187;DHT22;2107;52.306;10.484;2024-02-14T11:04:37;10.00;99.90
4187;DHT22;2107;52.306;10.484;2024-02-14T11:07:09;9.80;99.90
4187;DHT22;2107;52.306;10.484;2024-02-14T11:09:36;10.00;99.90
4187;DHT22;2107;52.306;10.484;2024-02-14T11:12:06;10.00;99.90
4187;DHT22;2107;52.306;10.484;2024-02-14T11:14:34;10.10;99.90
4187;DHT22;2107;52.306;10.484;2024-02-14T11:17:09;10.00;99.90
4187;DHT22;2107;52.306;10.484;2024-02-14T11:19:36;10.10;99.90
4187;DHT22;2107;52.306;10.484;2024-02-14T11:22:12;10.10;99.90
4187;DHT22;2107;52.306;10.484;2024-02-14T11:24:39;10.20;99.90
4187;DHT22;2107;52.306;10.484;2024-02-14T11:27:10;10.20;99.90
4187;DHT22;2107;52.306;10.484;2024-02-14T11:29:39;10.30;99.90
4187;DHT22;2107;52.306;10.484;2024-02-14T11:32:11;10.50;99.90
4187;DHT22;2107;52.306;10.484;2024-02-14T11:34:39;10.80;99.90
4187;DHT22;2107;52.306;10.484;2024-02-14T11:37:06;10.80;99.90
4187;DHT22;2107;52.306;10.484;2024-02-14T11:39:33;10.90;99.90
4187;DHT22;2107;52.306;10.484;2024-02-14T11:42:00;10.40;99.90
4187;DHT22;2107;52.306;10.484;2024-02-14T11:44:28;10.60;99.90
4187;DHT22;2107;52.306;10.484;2024-02-14T11:46:55;10.80;99.90
4187;DHT22;2107;52.306;10.484;2024-02-14T11:49:23;10.80;99.90
4187;DHT22;2107;52.306;10.484;2024-02-14T11:51:50;10.70;99.90
4187;DHT22;2107;52.306;10.484;2024-02-14T11:54:18;10.80;99.90
4187;DHT22;2107;52.306;10.484;2024-02-14T11:56:46;10.60;99.90
4187;DHT22;2107;52.306;10.484;2024-02-14T11:59:15;10.40;99.90
4187;DHT22;2107;52.306;10.484;2024-02-14T12:01:45;10.30;99.90
4187;DHT22;2107;52.306;10.484;2024-02-14T12:04:14;10.60;99.90
4187;DHT22;2107;52.306;10.484;2024-02-14T12:06:42;10.50;99.90
4187;DHT22;2107;52.306;10.484;2024-02-14T12:09:09;10.50;99.90
4187;DHT22;2107;52.306;10.484;2024-02-14T12:11:39;10.80;99.90
4187;DHT22;2107;52.306;10.484;2024-02-14T12:14:08;10.80;99.90
4187;DHT22;2107;52.306;10.484;2024-02-14T12:16:35;10.90;99.90
4187;DHT22;2107;52.306;10.484;2024-02-14T12:19:04;10.90;99.90
4187;DHT22;2107;52.306;10.484;2024-02-14T12:21:34;11.10;99.90
4187;DHT22;2107;52.306;10.484;2024-02-14T12:24:04;11.00;99.90
4187;DHT22;2107;52.306;10.484;2024-02-14T12:26:31;10.90;99.90
4187;DHT22;2107;52.306;10.484;2024-02-14T12:29:00;11.00;99.90
4187;DHT22;2107;52.306;10.484;2024-02-14T12:31:27;10.80;99.90
4187;DHT22;2107;52.306;10.484;2024-02-14T12:33:56;10.80;99.90
4187;DHT22;2107;52.306;10.484;2024-02-14T12:36:25;10.90;99.90
4187;DHT22;2107;52.306;10.484;2024-02-14T12:38:52;10.90;99.90
4187;DHT22;2107;52.306;10.484;2024-02-14T12:41:20;10.90;99.90
4187;DHT22;2107;52.306;10.484;2024-02-14T12:43:49;10.70;99.90
4187;DHT22;2107;52.306;10.484;2024-02-14T12:46:16;10.80;99.90
4187;DHT22;2107;52.306;10.484;2024-02-14T12:48:43;10.70;99.90
4187;DHT22;2107;52.306;10.484;2024-02-14T12:51:10;10.70;99.90
4187;DHT22;2107;52.306;10.484;2024-02-14T12:53:37;10.70;99.90
4187;DHT22;2107;52.306;10.484;2024-02-14T12:56:04;10.80;99.90
4187;DHT22;2107;52.306;10.484;2024-02-14T12:58:33;10.90;99.90
4187;DHT22;2107;52.306;10.484;2024-02-14T13:01:00;11.00;99.90
4187;DHT22;2107;52.306;10.484;2024-02-14T13:03:31;11.10;99.90
4187;DHT22;2107;52.306;10.484;2024-02-14T13:05:58;11.10;99.90
4187;DHT22;2107;52.306;10.484;2024-02-14T13:08:25;11.20;99.90
4187;DHT22;2107;52.306;10.484;2024-02-14T13:10:52;11.20;99.90
4187;DHT22;2107;52.306;10.484;2024-02-14T13:13:20;10.90;99.90
4187;DHT22;2107;52.306;10.484;2024-02-14T13:15:48;10.90;99.90
4187;DHT22;2107;52.306;10.484;2024-02-14T13:18:15;11.10;99.90
4187;DHT22;2107;52.306;10.484;2024-02-14T13:20:42;11.10;99.90
4187;DHT22;2107;52.306;10.484;2024-02-14T13:23:10;10.90;99.90
4187;DHT22;2107;52.306;10.484;2024-02-14T13:25:36;11.10;99.90
4187;DHT22;2107;52.306;10.484;2024-02-14T13:28:04;11.10;99.90
4187;DHT22;2107;52.306;10.484;2024-02-14T13:30:31;11.40;99.90
4187;DHT22;2107;52.306;10.484;2024-02-14T13:32:59;11.80;99.90
4187;DHT22;2107;52.306;10.484;2024-02-14T13:35:26;12.10;99.90
4187;DHT22;2107;52.306;10.484;2024-02-14T13:37:54;12.10;99.90
4187;DHT22;2107;52.306;10.484;2024-02-14T13:40:22;12.00;99.90
4187;DHT22;2107;52.306;10.484;2024-02-14T13:42:49;11.40;99.90
4187;DHT22;2107;52.306;10.484;2024-02-14T13:45:16;11.30;99.90
4187;DHT22;2107;52.306;10.484;2024-02-14T13:47:43;11.20;99.90
4187;DHT22;2107;52.306;10.484;2024-02-14T13:50:11;11.00;99.90
4187;DHT22;2107;52.306;10.484;2024-02-14T13:52:39;10.80;99.90
4187;DHT22;2107;52.306;10.484;2024-02-14T13:55:06;10.70;99.90
4187;DHT22;2107;52.306;10.484;2024-02-14T13:57:35;10.50;99.90
4187;DHT22;2107;52.306;10.484;2024-02-14T14:00:04;10.50;99.90
4187;DHT22;2107;52.306;10.484;2024-02-14T14:02:31;10.40;99.90
4187;DHT22;2107;52.306;10.484;2024-02-14T14:04:58;10.50;99.90
4187;DHT22;2107;52.306;10.484;2024-02-14T14:07:26;10.50;99.90
4187;DHT22;2107;52.306;10.484;2024-02-14T14:09:52;10.40;99.90
4187;DHT22;2107;52.306;10.484;2024-02-14T14:12:19;10.50;99.90
4187;DHT22;2107;52.306;10.484;2024-02-14T14:14:46;10.60;99.90
4187;DHT22;2107;52.306;10.484;2024-02-14T14:17:14;10.50;99.90
4187;DHT22;2107;52.306;10.484;2024-02-14T14:19:40;10.50;99.90
4187;DHT22;2107;52.306;10.484;2024-02-14T14:22:07;10.50;99.90
4187;DHT22;2107;52.306;10.484;2024-02-14T14:24:36;10.40;99.90
4187;DHT22;2107;52.306;10.484;2024-02-14T14:27:03;10.30;99.90
4187;DHT22;2107;52.306;10.484;2024-02-14T14:29:32;10.30;99.90
4187;DHT22;2107;52.306;10.484;2024-02-14T14:31:59;10.40;99.90
4187;DHT22;2107;52.306;10.484;2024-02-14T14:34:26;10.30;99.90
4187;DHT22;2107;52.306;10.484;2024-02-14T14:36:55;10.30;99.90
4187;DHT22;2107;52.306;10.484;2024-02-14T14:39:22;10.30;99.90
4187;DHT22;2107;52.306;10.484;2024-02-14T14:41:50;10.30;99.90
4187;DHT22;2107;52.306;10.484;2024-02-14T14:44:18;10.40;99.90
4187;DHT22;2107;52.306;10.484;2024-02-14T14:46:45;10.30;99.90
4187;DHT22;2107;52.306;10.484;2024-02-14T14:49:12;10.30;99.90
4187;DHT22;2107;52.306;10.484;2024-02-14T14:51:39;10.30;99.90
4187;DHT22;2107;52.306;10.484;2024-02-14T14:54:06;10.30;99.90
4187;DHT22;2107;52.306;10.484;2024-02-14T14:56:33;10.30;99.90
4187;DHT22;2107;52.306;10.484;2024-02-14T14:59:01;10.30;99.90
4187;DHT22;2107;52.306;10.484;2024-02-14T15:01:29;10.40;99.90
4187;DHT22;2107;52.306;10.484;2024-02-14T15:03:56;10.30;99.90
4187;DHT22;2107;52.306;10.484;2024-02-14T15:06:23;10.50;99.90
4187;DHT22;2107;52.306;10.484;2024-02-14T15:08:50;10.30;99.90
4187;DHT22;2107;52.306;10.484;2024-02-14T15:11:17;10.30;99.90
4187;DHT22;2107;52.306;10.484;2024-02-14T15:13:46;10.30;99.90
4187;DHT22;2107;52.306;10.484;2024-02-14T15:16:14;10.50;99.90
4187;DHT22;2107;52.306;10.484;2024-02-14T15:18:41;10.40;99.90
4187;DHT22;2107;52.306;10.484;2024-02-14T15:21:09;10.30;99.90
4187;DHT22;2107;52.306;10.484;2024-02-14T15:23:36;10.40;99.90
4187;DHT22;2107;52.306;10.484;2024-02-14T15:26:03;10.40;99.90
4187;DHT22;2107;52.306;10.484;2024-02-14T15:28:32;10.40;99.90
4187;DHT22;2107;52.306;10.484;2024-02-14T15:31:05;10.30;99.90
4187;DHT22;2107;52.306;10.484;2024-02-14T15:33:51;10.20;99.90
4187;DHT22;2107;52.306;10.484;2024-02-14T15:36:18;10.10;99.90
4187;DHT22;2107;52.306;10.484;2024-02-14T15:38:45;10.10;99.90
4187;DHT22;2107;52.306;10.484;2024-02-14T15:41:12;10.10;99.90
4187;DHT22;2107;52.306;10.484;2024-02-14T15:43:40;10.00;99.90
4187;DHT22;2107;52.306;10.484;2024-02-14T15:46:10;10.00;99.90
4187;DHT22;2107;52.306;10.484;2024-02-14T15:48:37;9.90;99.90
4187;DHT22;2107;52.306;10.484;2024-02-14T15:51:05;9.80;99.90
4187;DHT22;2107;52.306;10.484;2024-02-14T15:53:32;9.80;99.90
4187;DHT22;2107;52.306;10.484;2024-02-14T15:55:59;9.80;99.90
4187;DHT22;2107;52.306;10.484;2024-02-14T15:58:27;9.80;99.90
4187;DHT22;2107;52.306;10.484;2024-02-14T16:00:54;9.80;99.90